Time;durP1;ratioP1;P1;durP2;ratioP2;P2;SDS_P1;SDS_P2;PMS_P1;PMS_P2;Temp;Humidity;BMP_temperature;BMP_pressure;BME280_temperature;BME280_humidity;BME280_pressure;Samples;Min_cycle;Max_cycle;Signal;HPM_P1;HPM_P2
2022/10/27 00:01:47;;;;;;;26.05;16.23;;;;;;;10.62;75.60;99298.56;5065215;28;20093;-71
2022/10/27 00:04:13;;;;;;;23.92;15.50;;;;;;;10.61;76.09;99296.94;5064028;28;20136;-72
2022/10/27 00:06:38;;;;;;;25.10;16.85;;;;;;;10.58;76.11;99298.31;5060918;28;20056;-72
2022/10/27 00:09:04;;;;;;;25.80;15.88;;;;;;;10.56;76.99;99290.38;5063618;28;20539;-72
2022/10/27 00:11:29;;;;;;;25.60;16.38;;;;;;;10.55;76.20;99296.13;5066585;28;20028;-72
2022/10/27 00:13:54;;;;;;;24.98;17.30;;;;;;;10.54;76.31;99298.06;5064045;28;20056;-72
2022/10/27 00:16:20;;;;;;;24.30;15.60;;;;;;;10.54;76.46;99305.44;5063147;28;20055;-71
2022/10/27 00:18:45;;;;;;;22.80;15.95;;;;;;;10.54;76.91;99305.44;5048012;28;20396;-71
2022/10/27 00:21:14;;;;;;;25.00;16.13;;;;;;;10.51;76.65;99297.78;5068631;28;20025;-70
2022/10/27 00:23:41;;;;;;;27.88;17.92;;;;;;;10.51;77.09;99301.34;5062248;28;20025;-71
2022/10/27 00:26:10;;;;;;;26.55;17.50;;;;;;;10.49;77.27;99300.81;5047343;28;20032;-71
2022/10/27 00:28:36;;;;;;;29.30;19.27;;;;;;;10.48;76.87;99299.16;5046534;28;20044;-72
2022/10/27 00:31:19;;;;;;;27.27;18.13;;;;;;;10.49;77.32;99298.06;5060556;28;20021;-71
2022/10/27 00:33:47;;;;;;;24.60;16.60;;;;;;;10.48;76.54;99298.31;5063197;28;20633;-71
2022/10/27 00:36:16;;;;;;;25.27;17.08;;;;;;;10.49;77.45;99295.31;5048372;28;20032;-71
2022/10/27 00:38:42;;;;;;;27.60;16.80;;;;;;;10.46;77.67;99293.13;5073479;28;20063;-71
2022/10/27 00:41:24;;;;;;;24.98;16.48;;;;;;;10.46;77.56;99303.25;5070995;28;20302;-71
2022/10/27 00:43:50;;;;;;;25.80;17.05;;;;;;;10.47;77.23;99302.16;5065569;28;20087;-72
2022/10/27 00:46:30;;;;;;;24.52;16.52;;;;;;;10.47;77.78;99299.41;5056684;28;20425;-72
2022/10/27 00:49:02;;;;;;;27.27;16.88;;;;;;;10.46;77.65;99303.25;5059512;28;20090;-72
2022/10/27 00:51:28;;;;;;;24.92;16.55;;;;;;;10.46;77.22;99306.00;5064868;28;20055;-72
2022/10/27 00:53:54;;;;;;;24.13;17.08;;;;;;;10.44;77.53;99303.53;5068789;28;20071;-72
2022/10/27 00:56:20;;;;;;;25.90;17.13;;;;;;;10.43;77.98;99313.69;5068846;28;20090;-72
2022/10/27 00:58:46;;;;;;;26.58;16.70;;;;;;;10.42;78.26;99306.53;5073673;28;20485;-72
2022/10/27 01:01:12;;;;;;;25.02;15.95;;;;;;;10.43;78.81;99310.13;5038609;28;20028;-72
2022/10/27 01:03:38;;;;;;;27.02;17.08;;;;;;;10.43;78.43;99313.69;5055148;28;20528;-72
2022/10/27 01:06:04;;;;;;;24.70;16.40;;;;;;;10.43;78.62;99310.13;5057837;28;20028;-72
2022/10/27 01:08:30;;;;;;;26.13;16.77;;;;;;;10.43;78.01;99315.59;5060275;28;20025;-73
2022/10/27 01:10:55;;;;;;;26.00;16.52;;;;;;;10.43;78.61;99318.34;5063746;28;20033;-70
2022/10/27 01:13:22;;;;;;;25.70;17.38;;;;;;;10.43;78.53;99313.69;5074034;28;20057;-71
2022/10/27 01:16:00;;;;;;;26.50;17.80;;;;;;;10.43;79.01;99324.66;5057775;28;20029;-70
2022/10/27 01:18:38;;;;;;;29.30;18.02;;;;;;;10.42;78.78;99317.50;5051887;28;20029;-71
2022/10/27 01:21:09;;;;;;;28.65;17.42;;;;;;;10.42;78.28;99322.19;5039882;28;20017;-72
2022/10/27 01:23:50;;;;;;;26.67;17.02;;;;;;;10.43;78.29;99323.84;5042843;28;20102;-71
2022/10/27 01:26:18;;;;;;;25.75;16.75;;;;;;;10.43;78.71;99319.16;5063124;28;20114;-71
2022/10/27 01:28:49;;;;;;;28.35;17.98;;;;;;;10.42;79.25;99320.25;5067283;28;20043;-72
2022/10/27 01:31:30;;;;;;;28.38;18.23;;;;;;;10.41;78.60;99323.28;5067938;28;20028;-72
2022/10/27 01:34:08;;;;;;;27.23;17.75;;;;;;;10.42;78.52;99327.66;5052049;28;20118;-71
2022/10/27 01:36:52;;;;;;;30.98;18.63;;;;;;;10.42;78.90;99323.00;5056040;28;20075;-72
2022/10/27 01:39:25;;;;;;;31.08;18.92;;;;;;;10.43;78.58;99329.31;5064163;28;20074;-72
2022/10/27 01:41:56;;;;;;;28.40;18.33;;;;;;;10.44;78.56;99328.22;5067929;28;20059;-72
2022/10/27 01:44:28;;;;;;;28.55;17.88;;;;;;;10.48;78.91;99326.59;5072167;28;20177;-71
2022/10/27 01:46:54;;;;;;;26.00;17.52;;;;;;;10.51;78.22;99330.69;5073882;28;20093;-72
2022/10/27 01:49:19;;;;;;;28.15;18.42;;;;;;;10.53;78.88;99328.50;5073597;28;20020;-72
2022/10/27 01:51:46;;;;;;;27.23;18.73;;;;;;;10.53;78.99;99336.72;5062875;28;20115;-72
2022/10/27 01:54:11;;;;;;;29.10;18.25;;;;;;;10.55;78.56;99338.09;5065468;28;20021;-72
2022/10/27 01:57:11;;;;;;;27.42;17.33;;;;;;;10.57;79.05;99333.16;5069266;28;20101;-73
2022/10/27 02:00:01;;;;;;;29.75;19.02;;;;;;;10.58;79.13;99336.72;5068256;28;20079;-72
2022/10/27 02:02:38;;;;;;;;;;;;;;;10.61;78.98;99346.31;5072511;28;20033;-72
2022/10/27 02:05:07;;;;;;;26.80;17.40;;;;;;;10.64;79.61;99348.50;5069712;28;20341;-72
2022/10/27 02:07:42;;;;;;;29.27;18.35;;;;;;;10.64;79.06;99345.75;5070004;28;20059;-73
2022/10/27 02:10:16;;;;;;;30.02;18.35;;;;;;;10.64;79.89;99337.53;5065573;28;20429;-72
2022/10/27 02:12:42;;;;;;;29.65;18.75;;;;;;;10.66;79.24;99333.44;5068966;28;20028;-72
2022/10/27 02:15:30;;;;;;;29.60;18.08;;;;;;;10.65;80.01;99334.53;5070809;28;20052;-72
2022/10/27 02:18:01;;;;;;;31.00;18.95;;;;;;;10.66;79.81;99343.56;5070700;28;20017;-72
2022/10/27 02:20:31;;;;;;;28.33;17.40;;;;;;;10.67;79.76;99345.22;5073778;28;20033;-72
2022/10/27 02:23:06;;;;;;;30.35;18.38;;;;;;;10.70;80.12;99344.66;5073690;28;20039;-72
2022/10/27 02:25:38;;;;;;;29.42;18.65;;;;;;;10.75;79.83;99347.41;5070682;28;20028;-72
2022/10/27 02:28:07;;;;;;;31.67;20.10;;;;;;;10.77;80.43;99349.91;5068880;28;20092;-72
2022/10/27 02:30:33;;;;;;;29.00;18.75;;;;;;;10.82;80.23;99349.88;5053739;28;20115;-72
2022/10/27 02:33:00;;;;;;;36.10;21.08;;;;;;;10.83;80.35;99349.59;5071776;28;20054;-72
2022/10/27 02:35:26;;;;;;;30.42;19.27;;;;;;;10.85;80.15;99349.31;5065179;28;20124;-72
2022/10/27 02:37:57;;;;;;;31.33;19.45;;;;;;;10.87;80.40;99347.94;5068558;28;20044;-73
2022/10/27 02:40:23;;;;;;;30.67;18.63;;;;;;;10.91;80.25;99344.66;5071539;28;20030;-72
2022/10/27 02:42:48;;;;;;;31.38;19.17;;;;;;;10.94;80.17;99344.91;5071895;28;20036;-72
2022/10/27 02:45:13;;;;;;;33.00;20.38;;;;;;;10.97;80.39;99349.84;5068947;28;20033;-72
2022/10/27 02:47:39;;;;;;;30.08;20.02;;;;;;;11.01;80.41;99339.13;5070917;28;20060;-71
2022/10/27 02:50:05;;;;;;;31.70;20.05;;;;;;;11.02;80.21;99338.88;5060932;28;20029;-72
2022/10/27 02:52:30;;;;;;;34.03;19.30;;;;;;;11.05;80.20;99339.41;5060324;28;20053;-72
2022/10/27 02:54:56;;;;;;;30.52;20.15;;;;;;;11.08;79.98;99344.34;5046158;28;20419;-72
2022/10/27 02:57:21;;;;;;;28.67;18.13;;;;;;;11.09;80.17;99346.81;5067580;28;20028;-73
2022/10/27 02:59:47;;;;;;;27.88;19.40;;;;;;;11.11;80.45;99354.78;5070780;28;20027;-72
2022/10/27 03:02:12;;;;;;;31.25;18.83;;;;;;;11.11;80.04;99349.28;5069465;28;20023;-72
2022/10/27 03:04:37;;;;;;;31.27;19.27;;;;;;;11.15;80.52;99359.44;5063261;28;20048;-72
2022/10/27 03:07:03;;;;;;;28.50;18.65;;;;;;;11.19;80.52;99353.38;5058509;28;20056;-72
2022/10/27 03:09:29;;;;;;;31.10;19.70;;;;;;;11.20;80.59;99364.09;5062940;28;20360;-72
2022/10/27 03:11:54;;;;;;;31.52;19.73;;;;;;;11.21;80.39;99364.91;5063554;28;20027;-73
2022/10/27 03:14:20;;;;;;;32.55;19.95;;;;;;;11.19;80.61;99365.22;5066598;28;20103;-70
2022/10/27 03:16:45;;;;;;;30.17;19.98;;;;;;;11.22;80.40;99369.31;5069082;28;20514;-71
2022/10/27 03:19:10;;;;;;;33.35;20.08;;;;;;;11.21;80.23;99370.41;5068511;28;20024;-71
2022/10/27 03:21:36;;;;;;;31.00;20.35;;;;;;;11.21;80.92;99375.91;5054235;28;20037;-71
2022/10/27 03:24:01;;;;;;;31.10;19.92;;;;;;;11.22;81.02;99380.28;5058846;28;20057;-70
2022/10/27 03:26:27;;;;;;;29.83;19.42;;;;;;;11.24;80.83;99380.84;5058963;28;20036;-71
2022/10/27 03:28:52;;;;;;;31.02;19.48;;;;;;;11.26;80.37;99384.94;5046222;28;20078;-71
2022/10/27 03:31:18;;;;;;;30.00;19.20;;;;;;;11.30;80.79;99387.97;5065746;28;20119;-71
2022/10/27 03:33:43;;;;;;;32.50;19.33;;;;;;;11.32;81.14;99383.00;5064777;28;20128;-72
2022/10/27 03:36:10;;;;;;;32.08;20.35;;;;;;;11.35;80.39;99387.13;5047602;28;20051;-71
2022/10/27 03:38:36;;;;;;;29.25;19.13;;;;;;;11.36;80.39;99386.84;5055115;28;20099;-71
2022/10/27 03:41:02;;;;;;;32.40;21.40;;;;;;;11.36;80.54;99381.38;5057142;28;20113;-71
2022/10/27 03:43:27;;;;;;;31.70;20.20;;;;;;;11.37;81.24;99385.75;5060471;28;20058;-71
2022/10/27 03:45:52;;;;;;;30.17;19.13;;;;;;;11.38;80.80;99384.66;5064177;28;20466;-71
2022/10/27 03:48:18;;;;;;;30.83;20.17;;;;;;;11.39;80.93;99386.31;5067077;28;20078;-73
2022/10/27 03:50:46;;;;;;;29.58;19.58;;;;;;;11.39;80.50;99393.69;5069314;28;20443;-71
2022/10/27 03:53:12;;;;;;;30.88;19.10;;;;;;;11.40;80.92;99398.94;5069042;28;20047;-72
2022/10/27 03:55:37;;;;;;;30.13;18.35;;;;;;;11.43;80.57;99400.28;5058541;28;20029;-72
2022/10/27 03:58:03;;;;;;;30.83;19.08;;;;;;;11.43;81.08;99392.03;5058883;28;20037;-71
2022/10/27 04:00:30;;;;;;;29.95;19.17;;;;;;;11.44;80.82;99396.44;5062148;28;20032;-70
2022/10/27 04:02:56;;;;;;;32.83;19.50;;;;;;;11.44;80.59;99386.25;5065321;28;20106;-71
2022/10/27 04:05:22;;;;;;;31.45;19.15;;;;;;;11.43;80.46;99392.84;5067954;28;20466;-71
2022/10/27 04:07:48;;;;;;;30.48;18.77;;;;;;;11.43;80.77;99394.78;5066459;28;20106;-71
2022/10/27 04:10:13;;;;;;;30.05;18.90;;;;;;;11.44;80.55;99401.94;5068000;28;20047;-70
2022/10/27 04:12:47;;;;;;;31.98;19.90;;;;;;;11.42;80.59;99402.19;5059889;28;20017;-71
2022/10/27 04:15:12;;;;;;;32.03;19.55;;;;;;;11.43;80.70;99400.28;5060919;28;20013;-71
2022/10/27 04:17:37;;;;;;;29.17;18.70;;;;;;;11.40;80.96;99395.34;5063825;28;20020;-70
2022/10/27 04:20:03;;;;;;;31.63;18.75;;;;;;;11.36;80.50;99400.59;5066523;28;20364;-71
2022/10/27 04:22:28;;;;;;;29.30;19.42;;;;;;;11.34;81.01;99399.19;5069659;28;20031;-71
2022/10/27 04:24:54;;;;;;;30.63;19.63;;;;;;;11.28;80.97;99404.69;5080208;28;20057;-71
2022/10/27 04:27:19;;;;;;;30.75;19.05;;;;;;;11.30;80.39;99407.19;5068643;28;20478;-71
2022/10/27 04:29:44;;;;;;;32.72;19.83;;;;;;;11.30;80.56;99405.25;5070114;28;20382;-71
2022/10/27 04:32:10;;;;;;;32.28;20.17;;;;;;;11.27;80.69;99413.22;5066346;28;20041;-72
2022/10/27 04:34:35;;;;;;;30.77;18.83;;;;;;;11.24;80.20;99417.34;5069728;28;20041;-71
2022/10/27 04:37:00;;;;;;;32.53;19.63;;;;;;;11.24;80.47;99416.53;5066600;28;20040;-72
2022/10/27 04:39:26;;;;;;;31.63;19.02;;;;;;;11.22;80.25;99415.97;5068423;28;20077;-72
2022/10/27 04:41:51;;;;;;;33.67;20.33;;;;;;;11.19;80.63;99420.13;5072106;28;20083;-71
2022/10/27 04:44:16;;;;;;;32.92;20.77;;;;;;;11.16;80.89;99423.41;5067046;28;20028;-71
2022/10/27 04:46:42;;;;;;;32.95;19.75;;;;;;;11.15;80.40;99425.31;5070422;28;20467;-71
2022/10/27 04:49:07;;;;;;;34.60;19.80;;;;;;;11.13;80.67;99426.72;5077225;28;20029;-71
2022/10/27 04:51:33;;;;;;;33.80;19.27;;;;;;;11.12;80.24;99425.06;5072598;28;20526;-71
2022/10/27 04:53:58;;;;;;;32.05;20.42;;;;;;;11.11;80.72;99426.97;5080058;28;20020;-72
2022/10/27 04:56:23;;;;;;;35.53;20.33;;;;;;;11.09;80.72;99437.41;5069453;28;20158;-71
2022/10/27 04:58:49;;;;;;;33.50;20.42;;;;;;;11.07;80.78;99431.38;5068391;28;20028;-72
2022/10/27 05:01:14;;;;;;;33.38;20.17;;;;;;;11.05;80.85;99430.81;5065290;28;20024;-71
2022/10/27 05:03:40;;;;;;;29.73;19.90;;;;;;;11.04;79.97;99429.16;5064510;28;20165;-72
2022/10/27 05:06:06;;;;;;;36.58;22.17;;;;;;;11.01;80.76;99426.97;5071366;28;20104;-71
2022/10/27 05:08:32;;;;;;;30.00;19.08;;;;;;;11.01;80.74;99436.03;5069452;28;20025;-72
2022/10/27 05:10:58;;;;;;;34.80;20.80;;;;;;;10.96;80.44;99438.78;5069099;28;20025;-71
2022/10/27 05:13:23;;;;;;;35.50;21.30;;;;;;;10.95;80.29;99442.63;5068101;28;20072;-71
2022/10/27 05:15:49;;;;;;;32.40;20.00;;;;;;;10.94;80.33;99440.16;5073882;28;20073;-72
2022/10/27 05:18:14;;;;;;;34.53;20.33;;;;;;;10.93;80.59;99439.34;5080261;28;20028;-72
2022/10/27 05:20:40;;;;;;;34.42;20.50;;;;;;;10.91;80.50;99435.22;5069966;28;20025;-72
2022/10/27 05:23:06;;;;;;;35.03;21.45;;;;;;;10.90;81.26;99447.31;5075316;28;20366;-71
2022/10/27 05:25:31;;;;;;;34.78;21.15;;;;;;;10.89;80.55;99453.88;5068459;28;20028;-72
2022/10/27 05:28:08;;;;;;;41.78;22.38;;;;;;;10.85;80.95;99459.91;5072671;28;20095;-71
2022/10/27 05:30:34;;;;;;;38.72;22.70;;;;;;;10.84;80.39;99460.19;5063464;28;20037;-71
2022/10/27 05:32:59;;;;;;;39.20;21.92;;;;;;;10.81;80.73;99463.47;5068910;28;20052;-72
2022/10/27 05:35:25;;;;;;;37.90;21.70;;;;;;;10.81;80.38;99467.06;5041344;28;20048;-73
2022/10/27 05:37:51;;;;;;;40.20;22.10;;;;;;;10.81;80.30;99472.53;5077902;28;20471;-73
2022/10/27 05:40:16;;;;;;;40.67;22.25;;;;;;;10.80;80.84;99472.81;5069440;28;20074;-73
2022/10/27 05:42:50;;;;;;;41.20;23.17;;;;;;;10.79;80.47;99476.66;5072061;28;20032;-72
2022/10/27 05:45:16;;;;;;;40.70;23.65;;;;;;;10.77;80.87;99482.41;5081468;28;20470;-72
2022/10/27 05:47:41;;;;;;;42.70;23.58;;;;;;;10.75;80.70;99478.31;5067557;28;20035;-73
2022/10/27 05:50:07;;;;;;;41.83;24.02;;;;;;;10.74;81.10;99479.41;5067554;28;20028;-72
2022/10/27 05:52:32;;;;;;;41.60;23.48;;;;;;;10.75;80.82;99489.28;5085759;28;20017;-71
2022/10/27 05:54:58;;;;;;;39.10;23.30;;;;;;;10.76;80.92;99489.00;5061568;28;20025;-71
2022/10/27 05:57:23;;;;;;;39.95;24.27;;;;;;;10.78;80.54;99488.75;5071967;28;20717;-70
2022/10/27 05:59:48;;;;;;;41.67;23.73;;;;;;;10.77;81.01;99487.91;5083305;28;20119;-69
2022/10/27 06:02:14;;;;;;;40.10;22.30;;;;;;;10.75;81.27;99492.84;5086988;28;20059;-70
2022/10/27 06:04:40;;;;;;;41.05;22.95;;;;;;;10.77;81.00;99489.84;5088714;28;20028;-69
2022/10/27 06:07:05;;;;;;;41.55;23.63;;;;;;;10.77;81.58;99493.38;5066024;28;20025;-70
2022/10/27 06:09:31;;;;;;;38.92;23.38;;;;;;;10.81;81.31;99499.13;5050748;28;20376;-71
2022/10/27 06:11:56;;;;;;;39.65;23.20;;;;;;;10.84;80.51;99504.09;5067447;28;20107;-70
2022/10/27 06:14:21;;;;;;;42.63;24.05;;;;;;;10.88;81.44;99510.69;5085722;28;20095;-71
2022/10/27 06:16:47;;;;;;;38.75;23.00;;;;;;;10.91;80.84;99512.06;5084309;28;20483;-69
2022/10/27 06:19:12;;;;;;;37.58;22.42;;;;;;;10.94;80.83;99515.09;5067943;28;20103;-69
2022/10/27 06:21:37;;;;;;;37.35;22.42;;;;;;;10.98;81.39;99516.19;5068464;28;20052;-70
2022/10/27 06:24:03;;;;;;;38.78;22.92;;;;;;;11.04;81.45;99511.53;5075562;28;20698;-70
2022/10/27 06:26:28;;;;;;;37.35;22.40;;;;;;;11.08;81.29;99515.38;5054120;28;20024;-70
2022/10/27 06:28:54;;;;;;;40.67;22.40;;;;;;;11.10;81.57;99518.66;5075439;28;20016;-70
2022/10/27 06:31:19;;;;;;;38.30;22.73;;;;;;;11.17;81.29;99523.91;5066856;28;20034;-70
2022/10/27 06:33:45;;;;;;;42.00;23.23;;;;;;;11.21;81.12;99518.69;5077707;28;20084;-71
2022/10/27 06:36:10;;;;;;;40.72;22.85;;;;;;;11.21;81.36;99524.16;5072648;28;20062;-70
2022/10/27 06:38:35;;;;;;;42.13;25.00;;;;;;;11.24;81.41;99538.16;5077847;28;20024;-72
2022/10/27 06:41:01;;;;;;;40.00;24.70;;;;;;;11.26;81.32;99533.22;5089120;28;20076;-72
2022/10/27 06:43:26;;;;;;;39.40;22.70;;;;;;;11.28;81.06;99542.00;5088153;28;20025;-71
2022/10/27 06:45:51;;;;;;;41.10;23.00;;;;;;;11.31;81.22;99557.94;5072044;28;20471;-72
2022/10/27 06:48:17;;;;;;;38.67;22.02;;;;;;;11.31;81.13;99546.97;5082083;28;20024;-72
2022/10/27 06:50:42;;;;;;;35.70;20.83;;;;;;;11.35;80.98;99557.41;5071878;28;20031;-74
2022/10/27 06:53:08;;;;;;;36.88;21.80;;;;;;;11.37;81.41;99561.53;5068185;28;20028;-72
2022/10/27 06:55:33;;;;;;;38.47;23.00;;;;;;;11.38;80.94;99559.59;5068748;28;20392;-72
2022/10/27 06:57:59;;;;;;;41.22;23.52;;;;;;;11.37;80.67;99561.53;5079512;28;20055;-73
2022/10/27 07:00:25;;;;;;;38.22;21.83;;;;;;;11.36;81.55;99567.28;5090085;28;20032;-72
2022/10/27 07:02:50;;;;;;;35.60;20.33;;;;;;;11.36;81.30;99562.63;5071819;28;20037;-70
2022/10/27 07:05:16;;;;;;;38.15;21.30;;;;;;;11.39;81.53;99569.50;5068869;28;20032;-72
2022/10/27 07:07:47;;;;;;;36.83;20.45;;;;;;;11.44;81.44;99569.50;5070715;28;20052;-73
2022/10/27 07:10:12;;;;;;;35.80;20.88;;;;;;;11.52;81.28;99576.34;5071397;28;20104;-72
2022/10/27 07:12:37;;;;;;;35.78;20.55;;;;;;;11.57;81.37;99573.59;5075488;28;20108;-72
2022/10/27 07:15:03;;;;;;;40.35;22.70;;;;;;;11.60;81.27;99576.66;5071798;28;20029;-72
2022/10/27 07:17:29;;;;;;;38.70;21.65;;;;;;;11.61;81.68;99583.75;5076428;28;20116;-71
2022/10/27 07:19:54;;;;;;;37.95;20.45;;;;;;;11.65;81.48;99578.56;5078968;28;20039;-71
2022/10/27 07:22:20;;;;;;;39.95;21.60;;;;;;;11.70;81.42;99585.97;5066946;28;20458;-71
2022/10/27 07:24:45;;;;;;;37.85;21.23;;;;;;;11.74;81.48;99582.41;5064979;28;20028;-71
2022/10/27 07:27:11;;;;;;;38.88;22.25;;;;;;;11.79;81.08;99591.75;5071768;28;20020;-73
2022/10/27 07:29:36;;;;;;;36.78;21.52;;;;;;;11.82;80.93;99591.19;5070850;28;20039;-74
2022/10/27 07:32:02;;;;;;;37.03;21.05;;;;;;;11.86;81.25;99595.00;5069828;28;20112;-71
2022/10/27 07:34:27;;;;;;;34.85;19.75;;;;;;;11.86;81.19;99598.59;5066971;28;20611;-73
2022/10/27 07:36:52;;;;;;;38.08;21.23;;;;;;;11.86;81.12;99595.84;5066621;28;20023;-73
2022/10/27 07:39:18;;;;;;;38.10;21.30;;;;;;;11.89;81.00;99605.44;5068117;28;20096;-70
2022/10/27 07:41:43;;;;;;;38.05;20.88;;;;;;;11.90;81.49;99610.69;5065574;28;20025;-74
2022/10/27 07:44:08;;;;;;;35.83;20.10;;;;;;;11.93;81.58;99611.25;5060551;28;20032;-73
2022/10/27 07:46:34;;;;;;;41.63;21.45;;;;;;;11.95;81.12;99607.09;5060503;28;20060;-73
2022/10/27 07:48:59;;;;;;;42.33;21.65;;;;;;;12.03;81.80;99608.47;5076604;28;20022;-74
2022/10/27 07:51:25;;;;;;;39.58;21.08;;;;;;;12.08;81.55;99615.91;5080768;28;21376;-76
2022/10/27 07:53:50;;;;;;;39.83;21.63;;;;;;;12.10;81.29;99617.28;5071089;28;20023;-76
2022/10/27 07:56:16;;;;;;;39.10;21.40;;;;;;;12.12;81.19;99615.06;5065308;28;20071;-76
2022/10/27 07:58:42;;;;;;;39.95;20.75;;;;;;;12.16;81.64;99624.41;5062183;28;20029;-75
2022/10/27 08:01:07;;;;;;;43.28;22.95;;;;;;;12.19;81.03;99614.81;5066721;28;20055;-75
2022/10/27 08:03:33;;;;;;;39.55;21.70;;;;;;;12.28;81.66;99626.03;5065156;28;20036;-76
2022/10/27 08:06:03;;;;;;;40.58;21.55;;;;;;;12.34;81.64;99624.94;5064993;28;20032;-74
2022/10/27 08:08:31;;;;;;;40.67;21.05;;;;;;;12.44;81.65;99624.88;5064827;28;20113;-74
2022/10/27 08:10:56;;;;;;;35.78;20.25;;;;;;;12.53;81.51;99624.31;5062015;28;20025;-76
2022/10/27 08:13:22;;;;;;;42.70;22.10;;;;;;;12.58;81.49;99625.13;5065448;28;20073;-77
2022/10/27 08:15:47;;;;;;;42.22;21.65;;;;;;;12.64;81.68;99624.00;5068278;28;20032;-74
2022/10/27 08:18:13;;;;;;;43.63;21.83;;;;;;;12.70;81.32;99622.06;5066322;28;20518;-74
2022/10/27 08:20:41;;;;;;;40.15;21.17;;;;;;;12.76;81.38;99631.94;5046672;28;20016;-73
2022/10/27 08:23:10;;;;;;;41.08;21.30;;;;;;;12.86;81.47;99627.47;5070035;28;20089;-74
2022/10/27 08:25:35;;;;;;;39.70;21.63;;;;;;;12.94;81.40;99641.50;5060173;28;20104;-75
2022/10/27 08:28:01;;;;;;;39.78;20.98;;;;;;;13.04;81.36;99637.84;5066685;28;20021;-76
2022/10/27 08:30:29;;;;;;;37.53;20.02;;;;;;;13.10;81.05;99636.72;5068850;28;20028;-77
2022/10/27 08:32:59;;;;;;;38.22;20.88;;;;;;;13.16;81.14;99645.78;5054766;28;20052;-77
2022/10/27 08:35:25;;;;;;;;;;;;;;;13.23;81.34;99645.47;5071292;28;20090;-77
2022/10/27 08:38:04;;;;;;;44.28;22.73;;;;;;;13.25;81.19;99643.22;5069935;28;19919;-77
2022/10/27 08:41:03;;;;;;;42.40;22.83;;;;;;;13.26;81.08;99653.16;5071731;28;20039;-79
2022/10/27 08:43:51;;;;;;;41.50;21.23;;;;;;;13.34;81.05;99649.00;5073061;28;20564;-75
2022/10/27 08:46:24;;;;;;;42.05;21.13;;;;;;;13.39;80.64;99652.53;5065853;28;20032;-77
2022/10/27 08:48:54;;;;;;;41.30;22.30;;;;;;;13.43;80.64;99654.75;5066968;28;20039;-77
2022/10/27 08:51:22;;;;;;;42.45;21.50;;;;;;;13.45;80.67;99660.78;5047694;28;20024;-77
2022/10/27 08:53:51;;;;;;;43.95;21.65;;;;;;;13.44;80.59;99659.97;5037341;28;20036;-77
2022/10/27 08:56:19;;;;;;;50.13;25.48;;;;;;;13.49;80.56;99662.69;5067763;28;20024;-78
2022/10/27 08:58:46;;;;;;;44.00;23.35;;;;;;;13.50;80.63;99653.28;5067756;28;20020;-76
2022/10/27 09:01:31;;;;;;;48.70;24.75;;;;;;;13.51;80.30;99651.38;5064335;28;20478;-76
2022/10/27 09:04:35;;;;;;;43.95;23.15;;;;;;;13.51;80.12;99657.69;5048471;28;20035;-74
2022/10/27 09:07:17;;;;;;;50.38;24.60;;;;;;;13.50;80.32;99649.72;5016747;28;20041;-76
2022/10/27 09:09:53;;;;;;;51.88;25.15;;;;;;;13.50;80.18;99649.72;5074752;28;20386;-74
2022/10/27 09:12:34;;;;;;;44.90;23.30;;;;;;;13.54;80.49;99648.88;5065105;28;20220;-76
2022/10/27 09:15:02;;;;;;;48.50;24.90;;;;;;;13.62;80.57;99652.97;5062722;28;20036;-76
2022/10/27 09:17:39;;;;;;;45.85;24.52;;;;;;;13.66;80.55;99654.00;5072853;28;20452;-74
2022/10/27 09:20:15;;;;;;;45.67;25.23;;;;;;;13.70;80.63;99657.84;5061578;28;20468;-74
2022/10/27 09:22:41;;;;;;;47.03;24.50;;;;;;;13.76;80.67;99655.88;5080627;28;20104;-74
2022/10/27 09:25:17;;;;;;;52.47;26.13;;;;;;;13.79;80.28;99662.75;5067673;28;20513;-75
2022/10/27 09:27:45;;;;;;;47.75;24.50;;;;;;;13.82;80.36;99663.00;5042591;28;20509;-75
2022/10/27 09:30:13;;;;;;;44.63;23.50;;;;;;;13.86;80.30;99657.72;5066074;28;20028;-75
2022/10/27 09:32:42;;;;;;;51.00;25.73;;;;;;;13.88;80.46;99662.94;5061858;28;20037;-75
2022/10/27 09:35:13;;;;;;;48.35;25.98;;;;;;;13.93;79.97;99665.66;5070824;28;20017;-74
2022/10/27 09:37:40;;;;;;;47.05;24.73;;;;;;;13.95;80.25;99668.94;5074781;28;20024;-73
2022/10/27 09:40:14;;;;;;;52.92;27.23;;;;;;;13.97;80.07;99666.72;5088270;28;20429;-74
2022/10/27 09:42:40;;;;;;;47.33;25.10;;;;;;;14.01;79.94;99667.78;5066049;28;20482;-74
2022/10/27 09:45:18;;;;;;;42.78;23.33;;;;;;;14.05;79.92;99663.34;5062834;28;20029;-75
2022/10/27 09:47:47;;;;;;;43.55;23.75;;;;;;;14.11;80.42;99664.94;5065416;28;20024;-75
2022/10/27 09:50:35;;;;;;;44.97;23.20;;;;;;;14.19;80.05;99670.97;5065683;28;20029;-75
2022/10/27 09:53:02;;;;;;;36.05;19.55;;;;;;;14.26;80.36;99665.94;5065768;28;20025;-75
2022/10/27 09:55:51;;;;;;;35.85;20.27;;;;;;;14.32;80.15;99666.69;5066780;28;20028;-75
2022/10/27 09:58:18;;;;;;;37.80;20.73;;;;;;;14.38;79.85;99673.81;5066394;28;20047;-75
2022/10/27 10:00:44;;;;;;;35.05;19.15;;;;;;;14.41;79.89;99664.94;5070276;28;20036;-74
2022/10/27 10:03:20;;;;;;;35.22;18.60;;;;;;;14.46;79.78;99664.88;5072356;28;20402;-74
2022/10/27 10:05:58;;;;;;;32.72;17.55;;;;;;;14.51;79.68;99673.09;5071339;28;20029;-75
2022/10/27 10:08:25;;;;;;;33.75;18.92;;;;;;;14.59;80.04;99672.47;5061618;28;20031;-75
2022/10/27 10:11:04;;;;;;;28.42;16.45;;;;;;;14.64;79.78;99663.31;5092966;28;20614;-74
2022/10/27 10:13:32;;;;;;;29.38;17.40;;;;;;;14.71;79.50;99668.50;5074645;28;20062;-75
2022/10/27 10:16:06;;;;;;;33.10;18.13;;;;;;;14.76;79.23;99656.56;5093409;28;20023;-76
2022/10/27 10:18:34;;;;;;;30.08;17.42;;;;;;;14.84;79.54;99654.00;5093396;28;20035;-76
2022/10/27 10:21:05;;;;;;;30.48;15.73;;;;;;;14.92;79.60;99651.66;5093317;28;20027;-77
2022/10/27 10:23:36;;;;;;;24.20;13.32;;;;;;;14.99;79.39;99657.66;5081493;28;20093;-76
2022/10/27 10:26:13;;;;;;;23.42;12.20;;;;;;;15.06;79.06;99658.13;5071281;28;20021;-76
2022/10/27 10:28:42;;;;;;;22.13;12.85;;;;;;;15.13;78.84;99655.81;5070285;28;20016;-75
2022/10/27 10:31:14;;;;;;;25.13;13.67;;;;;;;15.21;78.81;99651.56;5063562;28;20055;-78
2022/10/27 10:33:43;;;;;;;19.15;10.60;;;;;;;15.27;78.38;99655.91;5043340;28;20120;-75
2022/10/27 10:36:18;;;;;;;17.48;10.70;;;;;;;15.32;78.46;99657.75;5066341;28;20035;-72
2022/10/27 10:38:49;;;;;;;20.88;11.95;;;;;;;15.38;78.03;99655.75;5079297;28;20367;-78
2022/10/27 10:41:16;;;;;;;17.67;10.77;;;;;;;15.44;78.50;99649.03;5071078;28;20033;-75
2022/10/27 10:43:42;;;;;;;18.08;10.40;;;;;;;15.50;78.39;99647.81;5071451;28;20040;-75
2022/10/27 10:46:35;;;;;;;17.70;11.07;;;;;;;15.58;78.20;99641.59;5076756;28;20035;-74
2022/10/27 10:49:01;;;;;;;16.77;9.23;;;;;;;15.67;77.90;99643.69;5058285;28;20037;-74
2022/10/27 10:51:35;;;;;;;15.52;9.30;;;;;;;15.75;77.79;99645.78;5086180;28;20397;-75
2022/10/27 10:54:08;;;;;;;16.58;9.48;;;;;;;15.82;77.74;99640.69;5060409;28;20028;-76
2022/10/27 10:56:36;;;;;;;15.88;10.05;;;;;;;15.88;77.19;99639.50;5052810;28;20021;-76
2022/10/27 10:59:14;;;;;;;19.55;9.90;;;;;;;15.93;76.90;99638.59;5069903;28;20433;-77
2022/10/27 11:02:05;;;;;;;14.98;8.15;;;;;;;15.98;76.74;99635.72;5065270;28;20135;-82
2022/10/27 11:04:39;;;;;;;16.75;9.88;;;;;;;16.05;76.77;99632.56;5057606;28;20573;-75
2022/10/27 11:07:18;;;;;;;14.95;9.20;;;;;;;16.12;76.58;99635.75;5065702;28;20036;-73
2022/10/27 11:10:05;;;;;;;16.45;9.63;;;;;;;16.21;76.53;99642.25;5070633;28;20032;-73
2022/10/27 11:12:53;;;;;;;16.33;9.65;;;;;;;16.30;76.61;99636.81;5052225;28;20029;-74
2022/10/27 11:15:26;;;;;;;19.20;9.30;;;;;;;16.40;75.83;99637.75;5070725;28;20112;-74
2022/10/27 11:17:57;;;;;;;15.43;9.02;;;;;;;16.44;74.72;99636.03;5070955;28;20059;-74
2022/10/27 11:20:27;;;;;;;20.13;9.85;;;;;;;16.49;74.90;99639.50;5070806;28;20120;-74
2022/10/27 11:22:54;;;;;;;15.43;8.43;;;;;;;16.53;74.97;99631.38;5070517;28;20051;-74
2022/10/27 11:25:25;;;;;;;19.13;9.95;;;;;;;16.60;74.49;99642.06;5071091;28;20400;-74
2022/10/27 11:28:05;;;;;;;19.10;9.52;;;;;;;16.64;74.85;99635.59;5072388;28;20482;-74